sensor_id;sensor_type;location;lat;lon;timestamp;P1;durP1;ratioP1;P2;durP2;ratioP2
72935;SDS011;61085;48.804;9.228;2022-08-27T00:00:25;18.40;;;16.50;;
72935;SDS011;61085;48.804;9.228;2022-08-27T00:02:51;19.05;;;17.13;;
72935;SDS011;61085;48.804;9.228;2022-08-27T00:05:17;18.63;;;16.53;;
72935;SDS011;61085;48.804;9.228;2022-08-27T00:07:44;20.05;;;18.02;;
72935;SDS011;61085;48.804;9.228;2022-08-27T00:10:13;21.58;;;19.33;;
72935;SDS011;61085;48.804;9.228;2022-08-27T00:12:43;21.65;;;19.55;;
72935;SDS011;61085;48.804;9.228;2022-08-27T00:15:09;23.13;;;20.67;;
72935;SDS011;61085;48.804;9.228;2022-08-27T00:17:35;22.00;;;19.52;;
72935;SDS011;61085;48.804;9.228;2022-08-27T00:20:02;22.02;;;19.38;;
72935;SDS011;61085;48.804;9.228;2022-08-27T00:22:29;21.58;;;18.52;;
72935;SDS011;61085;48.804;9.228;2022-08-27T00:24:54;19.37;;;17.00;;
72935;SDS011;61085;48.804;9.228;2022-08-27T00:27:20;22.13;;;17.87;;
72935;SDS011;61085;48.804;9.228;2022-08-27T00:29:46;22.00;;;19.57;;
72935;SDS011;61085;48.804;9.228;2022-08-27T00:32:12;22.67;;;20.38;;
72935;SDS011;61085;48.804;9.228;2022-08-27T00:34:38;29.13;;;22.37;;
72935;SDS011;61085;48.804;9.228;2022-08-27T00:37:04;24.83;;;20.15;;
72935;SDS011;61085;48.804;9.228;2022-08-27T00:39:30;24.75;;;22.15;;
72935;SDS011;61085;48.804;9.228;2022-08-27T00:41:56;23.90;;;21.50;;
72935;SDS011;61085;48.804;9.228;2022-08-27T00:44:25;24.98;;;22.40;;
72935;SDS011;61085;48.804;9.228;2022-08-27T00:46:56;23.02;;;20.63;;
72935;SDS011;61085;48.804;9.228;2022-08-27T00:49:27;25.30;;;21.83;;
72935;SDS011;61085;48.804;9.228;2022-08-27T00:52:03;25.15;;;22.38;;
72935;SDS011;61085;48.804;9.228;2022-08-27T00:54:32;25.50;;;21.83;;
72935;SDS011;61085;48.804;9.228;2022-08-27T00:56:58;26.00;;;23.40;;
72935;SDS011;61085;48.804;9.228;2022-08-27T00:59:25;24.45;;;21.85;;
72935;SDS011;61085;48.804;9.228;2022-08-27T01:01:57;24.45;;;20.55;;
72935;SDS011;61085;48.804;9.228;2022-08-27T01:04:42;28.70;;;24.05;;
72935;SDS011;61085;48.804;9.228;2022-08-27T01:07:11;26.27;;;23.52;;
72935;SDS011;61085;48.804;9.228;2022-08-27T01:09:38;23.55;;;21.05;;
72935;SDS011;61085;48.804;9.228;2022-08-27T01:12:07;25.55;;;22.80;;
72935;SDS011;61085;48.804;9.228;2022-08-27T01:14:33;25.63;;;23.13;;
72935;SDS011;61085;48.804;9.228;2022-08-27T01:16:59;25.60;;;22.98;;
72935;SDS011;61085;48.804;9.228;2022-08-27T01:19:28;27.17;;;23.25;;
72935;SDS011;61085;48.804;9.228;2022-08-27T01:27:00;25.33;;;22.13;;
72935;SDS011;61085;48.804;9.228;2022-08-27T01:29:28;26.98;;;23.25;;
72935;SDS011;61085;48.804;9.228;2022-08-27T01:31:59;27.60;;;24.60;;
72935;SDS011;61085;48.804;9.228;2022-08-27T01:34:32;25.60;;;22.55;;
72935;SDS011;61085;48.804;9.228;2022-08-27T01:36:58;23.30;;;20.80;;
72935;SDS011;61085;48.804;9.228;2022-08-27T01:39:24;29.00;;;23.40;;
72935;SDS011;61085;48.804;9.228;2022-08-27T01:41:49;25.93;;;23.23;;
72935;SDS011;61085;48.804;9.228;2022-08-27T01:44:16;26.65;;;22.77;;
72935;SDS011;61085;48.804;9.228;2022-08-27T01:46:42;26.30;;;23.07;;
72935;SDS011;61085;48.804;9.228;2022-08-27T01:49:08;29.93;;;25.00;;
72935;SDS011;61085;48.804;9.228;2022-08-27T01:51:34;28.40;;;25.23;;
72935;SDS011;61085;48.804;9.228;2022-08-27T01:54:01;28.60;;;24.88;;
72935;SDS011;61085;48.804;9.228;2022-08-27T01:56:27;27.20;;;23.80;;
72935;SDS011;61085;48.804;9.228;2022-08-27T01:58:52;28.33;;;23.73;;
72935;SDS011;61085;48.804;9.228;2022-08-27T02:01:18;29.47;;;26.37;;
72935;SDS011;61085;48.804;9.228;2022-08-27T02:03:44;30.37;;;24.73;;
72935;SDS011;61085;48.804;9.228;2022-08-27T02:06:11;27.92;;;24.65;;
72935;SDS011;61085;48.804;9.228;2022-08-27T02:08:37;29.20;;;24.73;;
72935;SDS011;61085;48.804;9.228;2022-08-27T02:11:03;27.38;;;24.60;;
72935;SDS011;61085;48.804;9.228;2022-08-27T02:13:29;31.63;;;24.30;;
72935;SDS011;61085;48.804;9.228;2022-08-27T02:15:54;28.10;;;25.10;;
72935;SDS011;61085;48.804;9.228;2022-08-27T02:18:20;26.60;;;23.88;;
72935;SDS011;61085;48.804;9.228;2022-08-27T02:20:46;25.50;;;22.90;;
72935;SDS011;61085;48.804;9.228;2022-08-27T02:23:12;28.70;;;24.02;;
72935;SDS011;61085;48.804;9.228;2022-08-27T02:25:39;28.45;;;25.50;;
72935;SDS011;61085;48.804;9.228;2022-08-27T02:28:07;29.55;;;24.17;;
72935;SDS011;61085;48.804;9.228;2022-08-27T02:30:33;29.20;;;24.95;;
72935;SDS011;61085;48.804;9.228;2022-08-27T02:33:00;27.45;;;24.55;;
72935;SDS011;61085;48.804;9.228;2022-08-27T02:35:27;26.92;;;23.95;;
72935;SDS011;61085;48.804;9.228;2022-08-27T02:37:54;27.05;;;24.35;;
72935;SDS011;61085;48.804;9.228;2022-08-27T02:40:21;29.85;;;26.15;;
72935;SDS011;61085;48.804;9.228;2022-08-27T02:42:48;28.15;;;25.00;;
72935;SDS011;61085;48.804;9.228;2022-08-27T02:45:14;28.70;;;23.60;;
72935;SDS011;61085;48.804;9.228;2022-08-27T02:47:40;29.60;;;26.48;;
72935;SDS011;61085;48.804;9.228;2022-08-27T02:50:07;27.17;;;24.27;;
72935;SDS011;61085;48.804;9.228;2022-08-27T02:52:33;29.85;;;25.65;;
72935;SDS011;61085;48.804;9.228;2022-08-27T02:54:59;27.60;;;24.65;;
72935;SDS011;61085;48.804;9.228;2022-08-27T02:57:25;30.37;;;25.90;;
72935;SDS011;61085;48.804;9.228;2022-08-27T02:59:51;27.33;;;24.40;;
72935;SDS011;61085;48.804;9.228;2022-08-27T03:02:17;28.27;;;25.27;;
72935;SDS011;61085;48.804;9.228;2022-08-27T03:04:44;31.73;;;27.00;;
72935;SDS011;61085;48.804;9.228;2022-08-27T03:07:10;28.17;;;25.07;;
72935;SDS011;61085;48.804;9.228;2022-08-27T03:09:35;31.10;;;25.93;;
72935;SDS011;61085;48.804;9.228;2022-08-27T03:12:01;28.30;;;25.23;;
72935;SDS011;61085;48.804;9.228;2022-08-27T03:14:27;27.88;;;24.45;;
72935;SDS011;61085;48.804;9.228;2022-08-27T03:16:53;28.70;;;25.70;;
72935;SDS011;61085;48.804;9.228;2022-08-27T03:19:19;26.67;;;23.92;;
72935;SDS011;61085;48.804;9.228;2022-08-27T03:21:45;32.00;;;25.43;;
72935;SDS011;61085;48.804;9.228;2022-08-27T03:24:11;25.33;;;22.48;;
72935;SDS011;61085;48.804;9.228;2022-08-27T03:26:37;28.17;;;24.80;;
72935;SDS011;61085;48.804;9.228;2022-08-27T03:29:03;28.95;;;25.00;;
72935;SDS011;61085;48.804;9.228;2022-08-27T03:31:29;27.90;;;23.80;;
72935;SDS011;61085;48.804;9.228;2022-08-27T03:33:56;26.03;;;23.10;;
72935;SDS011;61085;48.804;9.228;2022-08-27T03:36:27;24.33;;;21.77;;
72935;SDS011;61085;48.804;9.228;2022-08-27T03:38:54;26.63;;;23.75;;
72935;SDS011;61085;48.804;9.228;2022-08-27T03:41:20;23.27;;;20.98;;
72935;SDS011;61085;48.804;9.228;2022-08-27T03:43:47;27.65;;;21.95;;
72935;SDS011;61085;48.804;9.228;2022-08-27T03:46:13;23.08;;;19.42;;
72935;SDS011;61085;48.804;9.228;2022-08-27T03:48:39;20.48;;;18.45;;
72935;SDS011;61085;48.804;9.228;2022-08-27T03:51:06;19.10;;;17.20;;
72935;SDS011;61085;48.804;9.228;2022-08-27T03:53:35;20.63;;;18.58;;
72935;SDS011;61085;48.804;9.228;2022-08-27T03:56:02;19.25;;;17.17;;
72935;SDS011;61085;48.804;9.228;2022-08-27T03:58:30;18.85;;;16.98;;
72935;SDS011;61085;48.804;9.228;2022-08-27T04:00:56;18.80;;;17.00;;
72935;SDS011;61085;48.804;9.228;2022-08-27T04:03:22;18.40;;;16.70;;
72935;SDS011;61085;48.804;9.228;2022-08-27T04:05:55;19.42;;;17.63;;
72935;SDS011;61085;48.804;9.228;2022-08-27T04:08:22;21.02;;;15.77;;
72935;SDS011;61085;48.804;9.228;2022-08-27T04:10:48;20.90;;;18.80;;
72935;SDS011;61085;48.804;9.228;2022-08-27T04:13:15;21.92;;;19.70;;
72935;SDS011;61085;48.804;9.228;2022-08-27T04:15:44;22.40;;;19.65;;
72935;SDS011;61085;48.804;9.228;2022-08-27T04:18:12;21.75;;;19.70;;
72935;SDS011;61085;48.804;9.228;2022-08-27T04:20:40;22.02;;;19.67;;
72935;SDS011;61085;48.804;9.228;2022-08-27T04:23:13;24.05;;;21.45;;
72935;SDS011;61085;48.804;9.228;2022-08-27T04:25:39;27.25;;;24.40;;
72935;SDS011;61085;48.804;9.228;2022-08-27T04:28:06;25.05;;;22.40;;
72935;SDS011;61085;48.804;9.228;2022-08-27T04:30:33;25.58;;;22.88;;
72935;SDS011;61085;48.804;9.228;2022-08-27T04:33:02;30.35;;;25.95;;
72935;SDS011;61085;48.804;9.228;2022-08-27T04:35:28;34.90;;;27.00;;
72935;SDS011;61085;48.804;9.228;2022-08-27T04:37:56;37.23;;;26.67;;
72935;SDS011;61085;48.804;9.228;2022-08-27T04:40:22;36.20;;;26.50;;
72935;SDS011;61085;48.804;9.228;2022-08-27T04:43:07;29.20;;;25.33;;
72935;SDS011;61085;48.804;9.228;2022-08-27T04:45:33;29.10;;;25.43;;
72935;SDS011;61085;48.804;9.228;2022-08-27T04:48:08;35.78;;;26.42;;
72935;SDS011;61085;48.804;9.228;2022-08-27T04:50:37;33.17;;;26.65;;
72935;SDS011;61085;48.804;9.228;2022-08-27T04:53:04;34.03;;;29.48;;
72935;SDS011;61085;48.804;9.228;2022-08-27T04:55:30;36.20;;;29.77;;
72935;SDS011;61085;48.804;9.228;2022-08-27T04:57:56;36.40;;;28.83;;
72935;SDS011;61085;48.804;9.228;2022-08-27T05:00:21;33.23;;;26.00;;
72935;SDS011;61085;48.804;9.228;2022-08-27T05:02:47;30.50;;;27.40;;
72935;SDS011;61085;48.804;9.228;2022-08-27T05:05:13;34.10;;;27.05;;
72935;SDS011;61085;48.804;9.228;2022-08-27T05:07:41;35.92;;;29.20;;
72935;SDS011;61085;48.804;9.228;2022-08-27T05:10:07;39.80;;;30.77;;
72935;SDS011;61085;48.804;9.228;2022-08-27T05:12:33;35.45;;;30.63;;
72935;SDS011;61085;48.804;9.228;2022-08-27T05:14:59;34.07;;;29.37;;
72935;SDS011;61085;48.804;9.228;2022-08-27T05:17:25;32.60;;;28.70;;
72935;SDS011;61085;48.804;9.228;2022-08-27T05:19:55;33.80;;;27.10;;
72935;SDS011;61085;48.804;9.228;2022-08-27T05:22:20;34.10;;;27.57;;
72935;SDS011;61085;48.804;9.228;2022-08-27T05:24:46;37.00;;;30.00;;
72935;SDS011;61085;48.804;9.228;2022-08-27T05:27:11;35.47;;;27.17;;
72935;SDS011;61085;48.804;9.228;2022-08-27T05:29:37;34.73;;;30.07;;
72935;SDS011;61085;48.804;9.228;2022-08-27T05:32:03;39.70;;;29.87;;
72935;SDS011;61085;48.804;9.228;2022-08-27T05:34:29;32.27;;;28.77;;
72935;SDS011;61085;48.804;9.228;2022-08-27T05:36:54;32.40;;;28.90;;
72935;SDS011;61085;48.804;9.228;2022-08-27T05:39:20;32.07;;;28.57;;
72935;SDS011;61085;48.804;9.228;2022-08-27T05:41:45;38.23;;;28.43;;
72935;SDS011;61085;48.804;9.228;2022-08-27T05:44:11;29.43;;;26.33;;
72935;SDS011;61085;48.804;9.228;2022-08-27T05:46:38;33.63;;;29.10;;
72935;SDS011;61085;48.804;9.228;2022-08-27T05:49:04;35.28;;;27.40;;
72935;SDS011;61085;48.804;9.228;2022-08-27T05:51:32;31.45;;;26.83;;
72935;SDS011;61085;48.804;9.228;2022-08-27T05:54:00;31.30;;;28.10;;
72935;SDS011;61085;48.804;9.228;2022-08-27T05:56:42;33.25;;;29.45;;
72935;SDS011;61085;48.804;9.228;2022-08-27T05:59:08;34.63;;;26.60;;
72935;SDS011;61085;48.804;9.228;2022-08-27T06:01:53;36.13;;;28.75;;
72935;SDS011;61085;48.804;9.228;2022-08-27T06:04:20;29.13;;;26.00;;
72935;SDS011;61085;48.804;9.228;2022-08-27T06:06:48;31.80;;;28.50;;
72935;SDS011;61085;48.804;9.228;2022-08-27T06:09:16;31.27;;;27.35;;
72935;SDS011;61085;48.804;9.228;2022-08-27T06:11:43;33.55;;;29.85;;
72935;SDS011;61085;48.804;9.228;2022-08-27T06:14:10;33.75;;;28.45;;
72935;SDS011;61085;48.804;9.228;2022-08-27T06:16:37;32.83;;;29.42;;
72935;SDS011;61085;48.804;9.228;2022-08-27T06:19:03;34.90;;;29.27;;
72935;SDS011;61085;48.804;9.228;2022-08-27T06:21:30;34.65;;;29.95;;
72935;SDS011;61085;48.804;9.228;2022-08-27T06:23:56;34.23;;;28.10;;
72935;SDS011;61085;48.804;9.228;2022-08-27T06:26:22;37.60;;;30.50;;
72935;SDS011;61085;48.804;9.228;2022-08-27T06:28:49;35.35;;;30.95;;
72935;SDS011;61085;48.804;9.228;2022-08-27T06:31:16;36.57;;;29.63;;
72935;SDS011;61085;48.804;9.228;2022-08-27T06:33:52;37.97;;;29.27;;
72935;SDS011;61085;48.804;9.228;2022-08-27T06:36:25;33.35;;;29.83;;
72935;SDS011;61085;48.804;9.228;2022-08-27T06:38:53;35.67;;;28.17;;
72935;SDS011;61085;48.804;9.228;2022-08-27T06:41:20;37.97;;;29.42;;
72935;SDS011;61085;48.804;9.228;2022-08-27T06:43:48;32.88;;;28.75;;
72935;SDS011;61085;48.804;9.228;2022-08-27T06:46:16;29.33;;;26.08;;
72935;SDS011;61085;48.804;9.228;2022-08-27T06:48:44;32.30;;;28.80;;
72935;SDS011;61085;48.804;9.228;2022-08-27T06:51:21;32.20;;;26.20;;
72935;SDS011;61085;48.804;9.228;2022-08-27T06:53:50;34.05;;;28.67;;
72935;SDS011;61085;48.804;9.228;2022-08-27T06:56:17;32.97;;;28.77;;
72935;SDS011;61085;48.804;9.228;2022-08-27T06:58:44;31.67;;;27.20;;
72935;SDS011;61085;48.804;9.228;2022-08-27T07:01:10;28.47;;;25.33;;
72935;SDS011;61085;48.804;9.228;2022-08-27T07:03:41;33.30;;;28.73;;
72935;SDS011;61085;48.804;9.228;2022-08-27T07:06:10;31.52;;;26.45;;
72935;SDS011;61085;48.804;9.228;2022-08-27T07:08:38;34.83;;;27.25;;
72935;SDS011;61085;48.804;9.228;2022-08-27T07:11:05;35.28;;;28.90;;
72935;SDS011;61085;48.804;9.228;2022-08-27T07:13:32;28.42;;;25.50;;
72935;SDS011;61085;48.804;9.228;2022-08-27T07:15:58;29.93;;;26.80;;
72935;SDS011;61085;48.804;9.228;2022-08-27T07:18:32;32.13;;;27.33;;
72935;SDS011;61085;48.804;9.228;2022-08-27T07:20:58;27.88;;;24.77;;
72935;SDS011;61085;48.804;9.228;2022-08-27T07:23:33;28.50;;;25.60;;
72935;SDS011;61085;48.804;9.228;2022-08-27T07:26:00;28.42;;;24.83;;
72935;SDS011;61085;48.804;9.228;2022-08-27T07:29:11;27.75;;;24.77;;
72935;SDS011;61085;48.804;9.228;2022-08-27T07:31:41;29.63;;;25.55;;
72935;SDS011;61085;48.804;9.228;2022-08-27T07:34:07;27.90;;;23.60;;
72935;SDS011;61085;48.804;9.228;2022-08-27T07:36:34;124.15;;;46.38;;
72935;SDS011;61085;48.804;9.228;2022-08-27T07:39:00;39.63;;;26.80;;
72935;SDS011;61085;48.804;9.228;2022-08-27T07:41:25;34.63;;;24.07;;
72935;SDS011;61085;48.804;9.228;2022-08-27T07:43:51;30.17;;;24.03;;
72935;SDS011;61085;48.804;9.228;2022-08-27T07:46:36;23.92;;;20.75;;
72935;SDS011;61085;48.804;9.228;2022-08-27T07:49:01;30.27;;;26.87;;
72935;SDS011;61085;48.804;9.228;2022-08-27T07:51:27;27.60;;;23.97;;
72935;SDS011;61085;48.804;9.228;2022-08-27T07:53:56;27.40;;;24.55;;
72935;SDS011;61085;48.804;9.228;2022-08-27T07:56:22;29.30;;;26.20;;
72935;SDS011;61085;48.804;9.228;2022-08-27T07:58:48;33.70;;;25.85;;
72935;SDS011;61085;48.804;9.228;2022-08-27T08:01:15;26.10;;;23.40;;
72935;SDS011;61085;48.804;9.228;2022-08-27T08:03:41;27.90;;;25.00;;
72935;SDS011;61085;48.804;9.228;2022-08-27T08:06:09;28.02;;;25.10;;
72935;SDS011;61085;48.804;9.228;2022-08-27T08:08:38;24.30;;;22.00;;
72935;SDS011;61085;48.804;9.228;2022-08-27T08:11:05;28.90;;;25.23;;
72935;SDS011;61085;48.804;9.228;2022-08-27T08:13:33;36.85;;;28.33;;
72935;SDS011;61085;48.804;9.228;2022-08-27T08:15:59;33.40;;;26.57;;
72935;SDS011;61085;48.804;9.228;2022-08-27T08:18:25;29.37;;;26.23;;
72935;SDS011;61085;48.804;9.228;2022-08-27T08:20:57;30.85;;;27.65;;
72935;SDS011;61085;48.804;9.228;2022-08-27T08:23:24;31.83;;;27.70;;
72935;SDS011;61085;48.804;9.228;2022-08-27T08:25:50;30.60;;;27.33;;
72935;SDS011;61085;48.804;9.228;2022-08-27T08:28:15;32.03;;;27.20;;
72935;SDS011;61085;48.804;9.228;2022-08-27T08:30:41;37.53;;;30.00;;
72935;SDS011;61085;48.804;9.228;2022-08-27T08:33:08;35.78;;;29.73;;
72935;SDS011;61085;48.804;9.228;2022-08-27T08:35:36;41.20;;;31.83;;
72935;SDS011;61085;48.804;9.228;2022-08-27T08:38:02;41.67;;;31.35;;
72935;SDS011;61085;48.804;9.228;2022-08-27T08:40:33;34.30;;;29.87;;
72935;SDS011;61085;48.804;9.228;2022-08-27T08:45:55;31.30;;;27.90;;
72935;SDS011;61085;48.804;9.228;2022-08-27T08:48:26;41.15;;;32.70;;
72935;SDS011;61085;48.804;9.228;2022-08-27T08:59:33;35.40;;;31.48;;
72935;SDS011;61085;48.804;9.228;2022-08-27T09:02:03;38.35;;;29.85;;
72935;SDS011;61085;48.804;9.228;2022-08-27T09:04:33;38.58;;;32.47;;
72935;SDS011;61085;48.804;9.228;2022-08-27T09:07:01;39.73;;;32.70;;
72935;SDS011;61085;48.804;9.228;2022-08-27T09:12:10;41.05;;;31.25;;
72935;SDS011;61085;48.804;9.228;2022-08-27T09:14:55;34.38;;;30.63;;
72935;SDS011;61085;48.804;9.228;2022-08-27T09:17:29;35.00;;;27.63;;
72935;SDS011;61085;48.804;9.228;2022-08-27T09:19:55;34.20;;;29.80;;
72935;SDS011;61085;48.804;9.228;2022-08-27T09:22:47;29.52;;;24.73;;
72935;SDS011;61085;48.804;9.228;2022-08-27T09:27:50;26.15;;;23.45;;
72935;SDS011;61085;48.804;9.228;2022-08-27T09:30:21;25.10;;;22.33;;
72935;SDS011;61085;48.804;9.228;2022-08-27T09:32:53;24.77;;;22.15;;
72935;SDS011;61085;48.804;9.228;2022-08-27T09:35:24;19.63;;;17.83;;
72935;SDS011;61085;48.804;9.228;2022-08-27T09:37:53;21.48;;;19.08;;
72935;SDS011;61085;48.804;9.228;2022-08-27T09:42:56;21.83;;;19.67;;
72935;SDS011;61085;48.804;9.228;2022-08-27T09:45:30;21.52;;;19.30;;
72935;SDS011;61085;48.804;9.228;2022-08-27T09:48:08;20.38;;;18.58;;
72935;SDS011;61085;48.804;9.228;2022-08-27T09:50:48;21.63;;;17.42;;
72935;SDS011;61085;48.804;9.228;2022-08-27T09:53:22;19.85;;;18.00;;
72935;SDS011;61085;48.804;9.228;2022-08-27T09:55:58;18.15;;;16.35;;
72935;SDS011;61085;48.804;9.228;2022-08-27T09:58:31;18.77;;;17.17;;
72935;SDS011;61085;48.804;9.228;2022-08-27T10:01:19;19.25;;;17.35;;
72935;SDS011;61085;48.804;9.228;2022-08-27T10:03:47;18.10;;;16.52;;
72935;SDS011;61085;48.804;9.228;2022-08-27T10:06:13;18.20;;;16.50;;
72935;SDS011;61085;48.804;9.228;2022-08-27T10:08:49;19.17;;;17.48;;
72935;SDS011;61085;48.804;9.228;2022-08-27T10:11:29;21.65;;;18.30;;
72935;SDS011;61085;48.804;9.228;2022-08-27T10:21:59;21.35;;;18.52;;
72935;SDS011;61085;48.804;9.228;2022-08-27T10:27:47;19.23;;;17.65;;
72935;SDS011;61085;48.804;9.228;2022-08-27T10:35:56;21.35;;;19.38;;
72935;SDS011;61085;48.804;9.228;2022-08-27T10:38:35;23.02;;;20.60;;
72935;SDS011;61085;48.804;9.228;2022-08-27T10:41:21;21.73;;;19.63;;
72935;SDS011;61085;48.804;9.228;2022-08-27T10:43:56;21.90;;;19.92;;
72935;SDS011;61085;48.804;9.228;2022-08-27T10:51:35;30.40;;;27.48;;
72935;SDS011;61085;48.804;9.228;2022-08-27T10:54:18;24.67;;;22.48;;
72935;SDS011;61085;48.804;9.228;2022-08-27T11:00:07;24.20;;;21.85;;
72935;SDS011;61085;48.804;9.228;2022-08-27T11:02:56;25.20;;;22.50;;
72935;SDS011;61085;48.804;9.228;2022-08-27T11:05:30;24.00;;;21.70;;
72935;SDS011;61085;48.804;9.228;2022-08-27T11:08:12;24.77;;;22.38;;
72935;SDS011;61085;48.804;9.228;2022-08-27T11:10:43;25.05;;;22.65;;
72935;SDS011;61085;48.804;9.228;2022-08-27T11:13:14;23.70;;;21.30;;
72935;SDS011;61085;48.804;9.228;2022-08-27T11:16:00;31.60;;;27.05;;
72935;SDS011;61085;48.804;9.228;2022-08-27T11:18:41;30.23;;;26.45;;
72935;SDS011;61085;48.804;9.228;2022-08-27T11:24:13;24.15;;;21.75;;
72935;SDS011;61085;48.804;9.228;2022-08-27T11:27:00;27.98;;;23.60;;
72935;SDS011;61085;48.804;9.228;2022-08-27T11:29:34;25.02;;;22.52;;
72935;SDS011;61085;48.804;9.228;2022-08-27T11:32:15;28.85;;;23.13;;
72935;SDS011;61085;48.804;9.228;2022-08-27T11:35:00;24.60;;;22.25;;
72935;SDS011;61085;48.804;9.228;2022-08-27T11:42:53;26.02;;;23.58;;
72935;SDS011;61085;48.804;9.228;2022-08-27T11:45:30;27.65;;;24.30;;
72935;SDS011;61085;48.804;9.228;2022-08-27T11:50:40;25.02;;;22.48;;
72935;SDS011;61085;48.804;9.228;2022-08-27T11:53:16;27.35;;;24.55;;
72935;SDS011;61085;48.804;9.228;2022-08-27T11:55:49;27.67;;;24.70;;
72935;SDS011;61085;48.804;9.228;2022-08-27T12:00:45;25.67;;;23.13;;
72935;SDS011;61085;48.804;9.228;2022-08-27T12:05:48;27.57;;;24.70;;
72935;SDS011;61085;48.804;9.228;2022-08-27T12:21:42;31.53;;;26.50;;
72935;SDS011;61085;48.804;9.228;2022-08-27T12:26:57;27.73;;;25.07;;
72935;SDS011;61085;48.804;9.228;2022-08-27T12:34:48;25.17;;;22.67;;
72935;SDS011;61085;48.804;9.228;2022-08-27T12:37:47;29.40;;;26.03;;
72935;SDS011;61085;48.804;9.228;2022-08-27T12:43:16;27.23;;;24.43;;
72935;SDS011;61085;48.804;9.228;2022-08-27T12:48:16;25.30;;;22.60;;
72935;SDS011;61085;48.804;9.228;2022-08-27T12:50:50;29.57;;;26.67;;
72935;SDS011;61085;48.804;9.228;2022-08-27T12:59:05;31.37;;;27.47;;
72935;SDS011;61085;48.804;9.228;2022-08-27T13:04:38;28.17;;;25.30;;
72935;SDS011;61085;48.804;9.228;2022-08-27T13:07:06;28.60;;;25.87;;
72935;SDS011;61085;48.804;9.228;2022-08-27T13:09:35;27.90;;;25.20;;
72935;SDS011;61085;48.804;9.228;2022-08-27T13:12:04;26.57;;;23.87;;
72935;SDS011;61085;48.804;9.228;2022-08-27T13:14:39;28.00;;;25.30;;
72935;SDS011;61085;48.804;9.228;2022-08-27T13:17:23;29.27;;;26.47;;
72935;SDS011;61085;48.804;9.228;2022-08-27T13:20:01;27.50;;;24.80;;
72935;SDS011;61085;48.804;9.228;2022-08-27T13:22:35;27.90;;;25.00;;
72935;SDS011;61085;48.804;9.228;2022-08-27T13:25:03;27.90;;;25.07;;
72935;SDS011;61085;48.804;9.228;2022-08-27T13:27:33;28.53;;;25.63;;
72935;SDS011;61085;48.804;9.228;2022-08-27T13:30:02;27.73;;;25.13;;
72935;SDS011;61085;48.804;9.228;2022-08-27T13:32:31;29.43;;;24.83;;
72935;SDS011;61085;48.804;9.228;2022-08-27T13:34:58;28.67;;;25.77;;
72935;SDS011;61085;48.804;9.228;2022-08-27T13:37:26;26.90;;;24.10;;
72935;SDS011;61085;48.804;9.228;2022-08-27T13:40:06;27.87;;;25.20;;
72935;SDS011;61085;48.804;9.228;2022-08-27T13:42:32;29.60;;;26.67;;
72935;SDS011;61085;48.804;9.228;2022-08-27T13:45:02;28.17;;;25.17;;
72935;SDS011;61085;48.804;9.228;2022-08-27T13:47:31;28.00;;;25.30;;
72935;SDS011;61085;48.804;9.228;2022-08-27T13:50:09;26.20;;;23.50;;
72935;SDS011;61085;48.804;9.228;2022-08-27T13:52:48;27.13;;;24.43;;
72935;SDS011;61085;48.804;9.228;2022-08-27T13:55:34;28.73;;;25.73;;
72935;SDS011;61085;48.804;9.228;2022-08-27T13:58:13;26.00;;;23.53;;
72935;SDS011;61085;48.804;9.228;2022-08-27T14:00:46;25.27;;;22.57;;
72935;SDS011;61085;48.804;9.228;2022-08-27T14:03:28;28.70;;;23.67;;
72935;SDS011;61085;48.804;9.228;2022-08-27T14:05:58;28.73;;;25.67;;
72935;SDS011;61085;48.804;9.228;2022-08-27T14:08:29;25.03;;;22.70;;
72935;SDS011;61085;48.804;9.228;2022-08-27T14:11:05;25.00;;;22.63;;
72935;SDS011;61085;48.804;9.228;2022-08-27T14:13:37;26.10;;;23.13;;
72935;SDS011;61085;48.804;9.228;2022-08-27T14:16:11;29.77;;;23.50;;
72935;SDS011;61085;48.804;9.228;2022-08-27T14:18:48;27.07;;;24.20;;
72935;SDS011;61085;48.804;9.228;2022-08-27T14:21:16;27.87;;;24.87;;
72935;SDS011;61085;48.804;9.228;2022-08-27T14:23:42;30.27;;;24.60;;
72935;SDS011;61085;48.804;9.228;2022-08-27T14:26:08;28.27;;;25.37;;
72935;SDS011;61085;48.804;9.228;2022-08-27T14:28:34;27.33;;;24.50;;
72935;SDS011;61085;48.804;9.228;2022-08-27T14:31:00;26.87;;;23.50;;
72935;SDS011;61085;48.804;9.228;2022-08-27T14:33:28;25.07;;;22.50;;
72935;SDS011;61085;48.804;9.228;2022-08-27T14:35:54;24.63;;;22.17;;
72935;SDS011;61085;48.804;9.228;2022-08-27T14:38:20;23.33;;;21.10;;
72935;SDS011;61085;48.804;9.228;2022-08-27T14:40:48;25.37;;;22.87;;
72935;SDS011;61085;48.804;9.228;2022-08-27T14:43:17;22.83;;;20.60;;
72935;SDS011;61085;48.804;9.228;2022-08-27T14:45:43;24.53;;;22.27;;
72935;SDS011;61085;48.804;9.228;2022-08-27T14:48:29;27.73;;;24.83;;
72935;SDS011;61085;48.804;9.228;2022-08-27T14:50:57;21.47;;;19.47;;
72935;SDS011;61085;48.804;9.228;2022-08-27T14:53:26;25.47;;;23.03;;
72935;SDS011;61085;48.804;9.228;2022-08-27T14:55:52;23.27;;;20.93;;
72935;SDS011;61085;48.804;9.228;2022-08-27T14:58:20;22.40;;;20.20;;
72935;SDS011;61085;48.804;9.228;2022-08-27T15:00:46;21.30;;;19.20;;
72935;SDS011;61085;48.804;9.228;2022-08-27T15:03:12;19.93;;;17.70;;
72935;SDS011;61085;48.804;9.228;2022-08-27T15:05:38;23.13;;;20.90;;
72935;SDS011;61085;48.804;9.228;2022-08-27T15:08:04;24.07;;;21.70;;
72935;SDS011;61085;48.804;9.228;2022-08-27T15:10:30;24.87;;;20.17;;
72935;SDS011;61085;48.804;9.228;2022-08-27T15:12:56;25.47;;;22.93;;
72935;SDS011;61085;48.804;9.228;2022-08-27T15:15:22;25.63;;;23.10;;
72935;SDS011;61085;48.804;9.228;2022-08-27T15:17:51;24.53;;;22.20;;
72935;SDS011;61085;48.804;9.228;2022-08-27T15:20:16;31.17;;;24.27;;
72935;SDS011;61085;48.804;9.228;2022-08-27T15:22:42;25.50;;;22.90;;
72935;SDS011;61085;48.804;9.228;2022-08-27T15:25:10;25.60;;;23.20;;
72935;SDS011;61085;48.804;9.228;2022-08-27T15:27:37;25.80;;;23.30;;
72935;SDS011;61085;48.804;9.228;2022-08-27T15:30:04;24.37;;;22.00;;
72935;SDS011;61085;48.804;9.228;2022-08-27T15:32:36;26.03;;;23.40;;
72935;SDS011;61085;48.804;9.228;2022-08-27T15:35:05;26.77;;;24.30;;
72935;SDS011;61085;48.804;9.228;2022-08-27T15:37:33;24.87;;;22.30;;
72935;SDS011;61085;48.804;9.228;2022-08-27T15:40:00;23.67;;;21.43;;
72935;SDS011;61085;48.804;9.228;2022-08-27T15:42:26;23.57;;;21.23;;
72935;SDS011;61085;48.804;9.228;2022-08-27T15:44:52;22.63;;;20.40;;
72935;SDS011;61085;48.804;9.228;2022-08-27T15:47:20;24.40;;;22.00;;
72935;SDS011;61085;48.804;9.228;2022-08-27T15:49:46;22.90;;;20.90;;
72935;SDS011;61085;48.804;9.228;2022-08-27T15:52:12;22.23;;;20.13;;
72935;SDS011;61085;48.804;9.228;2022-08-27T15:54:41;23.60;;;21.43;;
72935;SDS011;61085;48.804;9.228;2022-08-27T15:57:07;24.13;;;21.53;;
72935;SDS011;61085;48.804;9.228;2022-08-27T15:59:33;23.20;;;21.10;;
72935;SDS011;61085;48.804;9.228;2022-08-27T16:01:59;23.53;;;21.43;;
72935;SDS011;61085;48.804;9.228;2022-08-27T16:04:26;23.17;;;21.03;;
72935;SDS011;61085;48.804;9.228;2022-08-27T16:06:52;25.07;;;22.73;;
72935;SDS011;61085;48.804;9.228;2022-08-27T16:09:18;25.87;;;23.23;;
72935;SDS011;61085;48.804;9.228;2022-08-27T16:11:44;23.27;;;20.93;;
72935;SDS011;61085;48.804;9.228;2022-08-27T16:14:13;23.27;;;20.83;;